Terminal Aerodrome Forecast
Issued by NWS

Home | Current Version | Previous Version | Text Only | Print | Product List | Glossary On
Versions: 1 2 3 4 5 6 7 8 9 10 11 12 13 14
000
FTUS44 KLZK 272000 AAA
TAFLIT
TAF AMD
KLIT 272048Z 2721/2818 24010G18KT P6SM SCT040 BKN150
     FM280100 25010KT P6SM VCSH SCT040 BKN150
      TEMPO 2802/2806 5SM -SHRA BR BKN035
     FM280700 33006KT P6SM BKN150
     FM281500 03005KT P6SM SCT150=

USA.gov is the U.S. government's official web portal to all federal, state and local government web resources and services.